createdAt,value
2023-02-07T00:00:44.727Z,83.63
2023-02-07T00:03:42.711Z,83.51
2023-02-07T00:06:37.831Z,83.05
2023-02-07T00:09:30.661Z,82.95
2023-02-07T00:12:23.501Z,82.83
2023-02-07T00:15:15.070Z,82.86
2023-02-07T00:18:07.897Z,82.95
2023-02-07T00:21:05.638Z,83.00
2023-02-07T00:23:59.549Z,82.89
2023-02-07T00:26:53.202Z,83.40
2023-02-07T00:29:46.032Z,83.05
2023-02-07T00:32:38.918Z,83.02
2023-02-07T00:35:31.663Z,82.65
2023-02-07T00:38:16.149Z,82.38
2023-02-07T00:41:09.325Z,82.14
2023-02-07T00:44:02.788Z,82.01
2023-02-07T00:46:55.585Z,81.94
2023-02-07T00:49:51.354Z,81.78
2023-02-07T00:52:44.020Z,81.87
2023-02-07T00:55:37.716Z,82.43
2023-02-07T00:58:30.936Z,82.13
2023-02-07T01:01:27.500Z,81.81
2023-02-07T01:04:20.361Z,81.69
2023-02-07T01:07:03.455Z,82.24
2023-02-07T01:09:56.867Z,82.02
2023-02-07T01:12:49.893Z,81.70
2023-02-07T01:15:46.284Z,81.80
2023-02-07T01:18:39.401Z,82.11
2023-02-07T01:21:32.443Z,81.82
2023-02-07T01:24:25.177Z,81.93
2023-02-07T01:27:17.960Z,81.79
2023-02-07T01:30:12.442Z,82.19
2023-02-07T01:33:05.355Z,82.21
2023-02-07T01:35:58.157Z,81.70
2023-02-07T01:38:50.948Z,81.99
2023-02-07T01:41:43.819Z,82.34
2023-02-07T01:45:02.881Z,82.39
2023-02-07T01:47:53.544Z,82.18
2023-02-07T01:50:37.738Z,82.18
2023-02-07T01:53:34.764Z,81.98
2023-02-07T01:56:31.273Z,82.19
2023-02-07T01:59:26.654Z,82.20
2023-02-07T02:02:22.031Z,82.05
2023-02-07T02:05:01.183Z,82.38
2023-02-07T02:07:54.011Z,82.39
2023-02-07T02:11:03.601Z,82.43
2023-02-07T02:14:06.076Z,82.34
2023-02-07T02:17:06.225Z,82.01
2023-02-07T02:20:24.854Z,81.97
2023-02-07T02:23:33.682Z,81.94
2023-02-07T02:27:05.476Z,81.75
2023-02-07T02:30:31.345Z,82.00
2023-02-07T02:33:41.233Z,81.81
2023-02-07T02:36:43.199Z,82.24
2023-02-07T02:39:42.774Z,82.14
2023-02-07T02:42:42.213Z,82.21
2023-02-07T02:45:42.101Z,82.10
2023-02-07T02:48:36.596Z,81.63
2023-02-07T02:51:31.462Z,81.94
2023-02-07T02:54:29.781Z,81.95
2023-02-07T02:57:50.721Z,81.67
2023-02-07T03:00:57.265Z,81.70
2023-02-07T03:04:03.130Z,81.65
2023-02-07T03:07:29.620Z,81.74
2023-02-07T03:10:32.229Z,82.08
2023-02-07T03:13:30.762Z,82.34
2023-02-07T03:16:28.154Z,82.13
2023-02-07T03:19:27.980Z,82.40
2023-02-07T03:22:24.345Z,82.38
2023-02-07T03:25:20.045Z,82.51
2023-02-07T03:28:05.410Z,82.55
2023-02-07T03:31:00.466Z,82.96
2023-02-07T03:34:04.729Z,83.07
2023-02-07T03:37:00.182Z,83.31
2023-02-07T03:39:53.848Z,83.53
2023-02-07T03:42:51.653Z,83.33
2023-02-07T03:45:44.973Z,83.44
2023-02-07T03:48:38.050Z,83.67
2023-02-07T03:51:23.891Z,83.95
2023-02-07T03:54:16.907Z,83.66
2023-02-07T03:57:09.889Z,83.89
2023-02-07T04:00:02.688Z,83.93
2023-02-07T04:02:55.442Z,83.82
2023-02-07T04:05:49.617Z,84.09
2023-02-07T04:08:42.975Z,84.40
2023-02-07T04:11:36.041Z,84.64
2023-02-07T04:14:27.812Z,84.73
2023-02-07T04:17:20.663Z,84.77
2023-02-07T04:19:56.195Z,84.70
2023-02-07T04:22:49.093Z,84.56
2023-02-07T04:25:41.851Z,84.43
2023-02-07T04:28:34.978Z,84.49
2023-02-07T04:31:27.770Z,84.48
2023-02-07T04:34:20.635Z,84.75
2023-02-07T04:37:13.420Z,84.56
2023-02-07T04:40:06.969Z,84.49
2023-02-07T04:42:59.722Z,84.52
2023-02-07T04:45:52.536Z,84.64
2023-02-07T04:48:45.394Z,84.31
2023-02-07T04:51:38.325Z,84.16
2023-02-07T04:54:31.219Z,84.33
2023-02-07T04:57:24.589Z,84.26
2023-02-07T05:00:19.123Z,84.40
2023-02-07T05:03:11.926Z,84.10
2023-02-07T05:06:05.010Z,84.08
2023-02-07T05:08:57.830Z,84.36
2023-02-07T05:11:50.690Z,84.07
2023-02-07T05:14:43.434Z,84.26
2023-02-07T05:17:38.640Z,84.18
2023-02-07T05:20:21.739Z,84.33
2023-02-07T05:23:15.408Z,84.38
2023-02-07T05:26:08.655Z,84.50
2023-02-07T05:29:03.102Z,84.62
2023-02-07T05:32:13.370Z,84.68
2023-02-07T05:35:06.652Z,84.62
2023-02-07T05:37:59.471Z,84.66
2023-02-07T05:40:52.321Z,84.85
2023-02-07T05:43:45.043Z,84.96
2023-02-07T05:46:37.885Z,84.80
2023-02-07T05:49:30.941Z,84.59
2023-02-07T05:52:23.493Z,84.54
2023-02-07T05:55:16.752Z,84.34
2023-02-07T05:58:09.510Z,84.08
2023-02-07T06:00:52.437Z,83.75
2023-02-07T06:03:39.115Z,84.09
2023-02-07T06:06:32.019Z,84.00
2023-02-07T06:09:25.337Z,84.05
2023-02-07T06:12:11.097Z,84.13
2023-02-07T06:15:04.886Z,84.00
2023-02-07T06:17:57.693Z,83.90
2023-02-07T06:20:53.304Z,83.90
2023-02-07T06:23:47.118Z,83.87
2023-02-07T06:26:39.958Z,83.67
2023-02-07T06:29:33.124Z,83.66
2023-02-07T06:32:26.179Z,84.00
2023-02-07T06:35:19.810Z,83.70
2023-02-07T06:38:12.696Z,83.47
2023-02-07T06:41:08.363Z,83.24
2023-02-07T06:44:01.482Z,83.34
2023-02-07T06:46:47.425Z,83.05
2023-02-07T06:49:38.962Z,82.76
2023-02-07T06:52:22.425Z,82.90
2023-02-07T06:55:09.650Z,82.83
2023-02-07T06:58:02.829Z,82.46
2023-02-07T07:00:55.931Z,82.11
2023-02-07T07:03:48.892Z,81.88
2023-02-07T07:06:41.943Z,81.79
2023-02-07T07:09:35.341Z,81.86
2023-02-07T07:12:28.331Z,82.26
2023-02-07T07:15:22.915Z,82.72
2023-02-07T07:18:16.210Z,82.78
2023-02-07T07:21:10.348Z,82.82
2023-02-07T07:24:03.222Z,82.57
2023-02-07T07:26:56.819Z,82.51
2023-02-07T07:29:49.715Z,82.73
2023-02-07T07:32:35.451Z,82.80
2023-02-07T07:35:28.844Z,83.24
2023-02-07T07:38:20.391Z,83.67
2023-02-07T07:41:13.478Z,84.02
2023-02-07T07:44:06.928Z,84.33
2023-02-07T07:47:00.235Z,84.29
2023-02-07T07:49:53.274Z,84.42
2023-02-07T07:52:46.682Z,84.62
2023-02-07T07:55:33.340Z,84.07
2023-02-07T07:58:28.209Z,83.95
2023-02-07T08:01:21.439Z,83.47
2023-02-07T08:04:04.973Z,83.45
2023-02-07T08:06:57.940Z,83.78
2023-02-07T08:09:44.126Z,83.81
2023-02-07T08:12:19.260Z,83.75
2023-02-07T08:15:14.065Z,83.84
2023-02-07T08:18:10.093Z,83.62
2023-02-07T08:20:46.196Z,83.17
2023-02-07T08:23:39.452Z,83.30
2023-02-07T08:26:17.602Z,83.08
2023-02-07T08:28:53.763Z,82.99
2023-02-07T08:31:29.729Z,82.63
2023-02-07T08:34:05.132Z,82.08
2023-02-07T08:36:39.542Z,81.54
2023-02-07T08:39:12.437Z,80.53
2023-02-07T08:41:45.418Z,79.97
2023-02-07T08:44:18.436Z,79.59
2023-02-07T08:46:53.948Z,78.99
2023-02-07T08:49:31.829Z,78.88
2023-02-07T08:52:05.095Z,78.72
2023-02-07T08:54:48.154Z,78.66
2023-02-07T08:57:23.252Z,78.91
2023-02-07T08:59:57.820Z,78.64
2023-02-07T09:02:33.632Z,78.58
2023-02-07T09:05:06.895Z,78.40
2023-02-07T09:07:39.684Z,78.03
2023-02-07T09:10:16.000Z,78.55
2023-02-07T09:12:49.102Z,78.56
2023-02-07T09:15:22.284Z,78.13
2023-02-07T09:17:54.955Z,78.05
2023-02-07T09:20:27.675Z,77.68
2023-02-07T09:23:17.740Z,77.21
2023-02-07T09:25:54.350Z,77.41
2023-02-07T09:28:27.286Z,77.35
2023-02-07T09:31:00.238Z,77.29
2023-02-07T09:33:34.815Z,77.83
2023-02-07T09:36:18.238Z,78.51
2023-02-07T09:38:52.802Z,78.97
2023-02-07T09:41:37.933Z,79.45
2023-02-07T09:44:18.942Z,80.06
2023-02-07T09:46:59.813Z,80.28
2023-02-07T09:49:38.606Z,80.43
2023-02-07T09:52:18.420Z,80.37
2023-02-07T09:54:55.230Z,80.36
2023-02-07T09:57:37.900Z,80.35
2023-02-07T10:00:24.502Z,80.41
2023-02-07T10:03:02.502Z,80.26
2023-02-07T10:05:43.404Z,79.99
2023-02-07T10:08:18.849Z,79.51
2023-02-07T10:11:01.203Z,79.39
2023-02-07T10:13:47.181Z,79.26
2023-02-07T10:16:32.539Z,78.82
2023-02-07T10:19:15.429Z,78.76
2023-02-07T10:21:58.219Z,78.23
2023-02-07T10:24:56.541Z,77.87
2023-02-07T10:27:33.860Z,77.77
2023-02-07T10:30:16.460Z,77.66
2023-02-07T10:32:52.202Z,77.47
2023-02-07T10:35:30.086Z,77.31
2023-02-07T10:38:04.057Z,77.15
2023-02-07T10:40:42.390Z,77.13
2023-02-07T10:43:23.391Z,76.97
2023-02-07T10:46:04.576Z,76.70
2023-02-07T10:48:39.596Z,76.44
2023-02-07T10:51:29.580Z,76.71
2023-02-07T10:54:09.992Z,76.52
2023-02-07T10:56:47.716Z,76.59
2023-02-07T10:59:46.674Z,75.75
2023-02-07T11:02:54.789Z,75.76
2023-02-07T11:05:34.851Z,76.34
2023-02-07T11:08:18.888Z,76.45
2023-02-07T11:10:56.247Z,76.41
2023-02-07T11:13:31.328Z,76.66
2023-02-07T11:16:08.047Z,76.50
2023-02-07T11:18:46.345Z,76.37
2023-02-07T11:21:36.916Z,76.31
2023-02-07T11:24:16.049Z,76.14
2023-02-07T11:26:58.136Z,76.47
2023-02-07T11:29:35.545Z,76.22
2023-02-07T11:32:15.001Z,75.94
2023-02-07T11:34:54.597Z,75.89
2023-02-07T11:37:34.135Z,76.13
2023-02-07T11:40:29.415Z,76.42
2023-02-07T11:43:13.906Z,76.57
2023-02-07T11:45:51.351Z,76.56
2023-02-07T11:48:27.411Z,76.03
2023-02-07T11:51:03.544Z,75.84
2023-02-07T11:53:41.086Z,74.94
2023-02-07T11:56:25.643Z,74.50
2023-02-07T11:59:01.445Z,74.16
2023-02-07T12:01:39.759Z,73.89
2023-02-07T12:04:18.527Z,73.84
2023-02-07T12:06:58.801Z,73.46
2023-02-07T12:09:42.316Z,73.08
2023-02-07T12:12:23.889Z,73.56
2023-02-07T12:15:01.705Z,73.83
2023-02-07T12:17:40.553Z,73.93
2023-02-07T12:20:23.798Z,73.86
2023-02-07T12:23:21.451Z,73.75
2023-02-07T12:26:03.258Z,74.31
2023-02-07T12:28:43.528Z,73.63
2023-02-07T12:31:25.881Z,73.93
2023-02-07T12:34:04.984Z,74.29
2023-02-07T12:36:44.045Z,74.24
2023-02-07T12:39:25.607Z,74.25
2023-02-07T12:42:24.974Z,74.35
2023-02-07T12:45:02.038Z,74.00
2023-02-07T12:47:57.418Z,74.03
2023-02-07T12:50:55.877Z,74.29
2023-02-07T12:54:01.613Z,74.55
2023-02-07T12:56:57.631Z,74.69
2023-02-07T12:59:47.169Z,74.90
2023-02-07T13:02:52.570Z,74.90
2023-02-07T13:05:52.574Z,75.12
2023-02-07T13:08:35.308Z,75.33
2023-02-07T13:11:16.704Z,75.62
2023-02-07T13:13:59.626Z,75.94
2023-02-07T13:16:42.956Z,76.03
2023-02-07T13:19:24.488Z,75.61
2023-02-07T13:22:04.273Z,76.10
2023-02-07T13:24:39.707Z,76.15
2023-02-07T13:27:18.566Z,76.11
2023-02-07T13:29:53.029Z,76.36
2023-02-07T13:32:28.590Z,76.50
2023-02-07T13:35:08.716Z,76.95
2023-02-07T13:37:53.411Z,77.55
2023-02-07T13:40:51.897Z,77.95
2023-02-07T13:43:44.079Z,78.23
2023-02-07T13:46:31.772Z,78.44
2023-02-07T13:49:30.735Z,78.57
2023-02-07T13:52:19.800Z,78.52
2023-02-07T13:55:03.854Z,78.33
2023-02-07T13:58:04.880Z,78.09
2023-02-07T14:01:20.943Z,78.11
2023-02-07T14:04:06.848Z,78.28
2023-02-07T14:07:12.035Z,78.72
2023-02-07T14:10:06.064Z,79.20
2023-02-07T14:12:54.574Z,79.52
2023-02-07T14:16:02.608Z,79.62
2023-02-07T14:18:55.802Z,79.82
2023-02-07T14:21:48.852Z,79.76
2023-02-07T14:25:15.109Z,79.65
2023-02-07T14:28:20.004Z,79.74
2023-02-07T14:31:32.517Z,79.62
2023-02-07T14:34:30.261Z,79.45
2023-02-07T14:37:41.236Z,79.39
2023-02-07T14:40:25.899Z,79.58
2023-02-07T14:43:24.961Z,79.77
2023-02-07T14:46:25.955Z,79.95
2023-02-07T14:49:21.085Z,80.30
2023-02-07T14:52:00.301Z,80.62
2023-02-07T14:54:44.296Z,81.07
2023-02-07T14:57:47.795Z,81.18
2023-02-07T15:00:47.471Z,81.36
2023-02-07T15:03:40.855Z,81.32
2023-02-07T15:06:41.148Z,81.23
2023-02-07T15:09:36.023Z,81.28
2023-02-07T15:12:30.364Z,81.32
2023-02-07T15:15:25.015Z,81.49
2023-02-07T15:18:20.699Z,81.62
2023-02-07T15:21:06.672Z,81.96
2023-02-07T15:24:04.569Z,82.07
2023-02-07T15:26:59.964Z,82.19
2023-02-07T15:29:59.660Z,82.54
2023-02-07T15:32:47.627Z,82.46
2023-02-07T15:35:24.546Z,82.25
2023-02-07T15:38:14.814Z,82.37
2023-02-07T15:41:08.640Z,82.36
2023-02-07T15:44:03.152Z,82.42
2023-02-07T15:46:58.540Z,82.42
2023-02-07T15:49:43.461Z,82.39
2023-02-07T15:52:40.543Z,82.41
2023-02-07T15:55:38.972Z,82.43
2023-02-07T15:58:37.998Z,82.72
2023-02-07T16:01:32.558Z,83.03
2023-02-07T16:04:09.632Z,83.01
2023-02-07T16:07:07.745Z,83.31
2023-02-07T16:10:15.410Z,83.34
2023-02-07T16:12:53.069Z,83.21
2023-02-07T16:15:57.547Z,83.31
2023-02-07T16:18:43.004Z,83.19
2023-02-07T16:21:38.639Z,82.71
2023-02-07T16:24:31.054Z,82.71
2023-02-07T16:27:23.946Z,82.52
2023-02-07T16:29:57.326Z,82.64
2023-02-07T16:32:50.664Z,82.80
2023-02-07T16:35:27.445Z,82.78
2023-02-07T16:38:00.575Z,82.97
2023-02-07T16:40:33.912Z,83.20
2023-02-07T16:43:08.075Z,83.46
2023-02-07T16:45:41.398Z,83.49
2023-02-07T16:48:18.318Z,83.48
2023-02-07T16:50:51.071Z,83.48
2023-02-07T16:53:23.790Z,83.36
2023-02-07T16:55:58.468Z,83.22
2023-02-07T16:58:34.855Z,83.14
2023-02-07T17:01:14.397Z,83.13
2023-02-07T17:03:58.592Z,83.35
2023-02-07T17:06:52.000Z,83.85
2023-02-07T17:09:46.611Z,84.03
2023-02-07T17:12:39.057Z,84.10
2023-02-07T17:15:33.377Z,84.42
2023-02-07T17:18:20.724Z,84.56
2023-02-07T17:20:56.978Z,84.56
2023-02-07T17:23:32.367Z,84.51
2023-02-07T17:26:31.264Z,84.49
2023-02-07T17:29:04.218Z,84.30
2023-02-07T17:31:47.675Z,84.12
2023-02-07T17:34:42.327Z,84.25
2023-02-07T17:37:35.413Z,84.40
2023-02-07T17:40:27.342Z,84.42
2023-02-07T17:43:20.666Z,84.58
2023-02-07T17:46:10.464Z,84.60
2023-02-07T17:49:04.072Z,85.00
2023-02-07T17:51:57.409Z,84.86
2023-02-07T17:54:50.642Z,84.93
2023-02-07T17:57:43.944Z,85.01
2023-02-07T18:00:39.573Z,84.90
2023-02-07T18:03:33.261Z,84.49
2023-02-07T18:06:28.880Z,84.41
2023-02-07T18:09:24.834Z,84.59
2023-02-07T18:12:17.902Z,84.37
2023-02-07T18:15:12.115Z,84.38
2023-02-07T18:17:47.386Z,84.17
2023-02-07T18:20:40.517Z,84.33
2023-02-07T18:23:24.650Z,84.65
2023-02-07T18:26:19.443Z,84.98
2023-02-07T18:29:12.572Z,85.16
2023-02-07T18:32:05.404Z,85.31
2023-02-07T18:34:49.488Z,85.04
2023-02-07T18:37:42.277Z,84.93
2023-02-07T18:40:35.479Z,84.87
2023-02-07T18:43:28.692Z,84.92
2023-02-07T18:46:22.717Z,85.05
2023-02-07T18:49:16.674Z,85.40
2023-02-07T18:52:09.769Z,85.39
2023-02-07T18:55:02.615Z,85.64
2023-02-07T18:57:57.836Z,85.75
2023-02-07T19:00:50.596Z,85.79
2023-02-07T19:03:44.876Z,85.68
2023-02-07T19:06:30.051Z,85.89
2023-02-07T19:09:23.909Z,85.86
2023-02-07T19:12:16.662Z,85.93
2023-02-07T19:15:10.739Z,86.00
2023-02-07T19:18:05.459Z,85.92
2023-02-07T19:20:50.771Z,86.01
2023-02-07T19:23:43.954Z,85.87
2023-02-07T19:26:27.098Z,85.90
2023-02-07T19:29:12.269Z,86.17
2023-02-07T19:31:55.263Z,86.21
2023-02-07T19:34:49.161Z,86.23
2023-02-07T19:37:33.068Z,86.05
2023-02-07T19:40:25.839Z,86.22
2023-02-07T19:43:01.622Z,86.00
2023-02-07T19:45:54.715Z,86.01
2023-02-07T19:48:47.912Z,85.94
2023-02-07T19:51:40.801Z,86.05
2023-02-07T19:54:33.727Z,86.22
2023-02-07T19:57:28.103Z,86.24
2023-02-07T20:00:07.116Z,86.49
2023-02-07T20:02:43.083Z,86.67
2023-02-07T20:05:18.847Z,87.11
2023-02-07T20:07:51.600Z,87.30
2023-02-07T20:10:25.039Z,87.35
2023-02-07T20:13:18.850Z,87.36
2023-02-07T20:16:14.931Z,87.64
2023-02-07T20:19:01.006Z,87.64
2023-02-07T20:21:43.715Z,87.59
2023-02-07T20:24:29.317Z,87.78
2023-02-07T20:27:22.439Z,87.74
2023-02-07T20:30:16.027Z,87.64
2023-02-07T20:33:00.651Z,87.24
2023-02-07T20:35:44.336Z,87.03
2023-02-07T20:38:19.850Z,86.90
2023-02-07T20:40:58.233Z,86.80
2023-02-07T20:43:46.045Z,87.15
2023-02-07T20:46:40.232Z,87.33
2023-02-07T20:49:16.734Z,87.21
2023-02-07T20:52:09.813Z,87.21
2023-02-07T20:55:02.747Z,87.18
2023-02-07T20:57:44.445Z,87.29
2023-02-07T21:00:37.695Z,87.25
2023-02-07T21:03:30.618Z,87.14
2023-02-07T21:06:16.954Z,87.09
2023-02-07T21:09:10.343Z,86.88
2023-02-07T21:12:04.375Z,87.10
2023-02-07T21:14:48.135Z,87.01
2023-02-07T21:17:42.005Z,87.25
2023-02-07T21:20:36.710Z,87.33
2023-02-07T21:23:30.058Z,87.31
2023-02-07T21:26:23.630Z,87.47
2023-02-07T21:29:07.924Z,87.51
2023-02-07T21:32:02.087Z,87.18
2023-02-07T21:34:34.774Z,87.01
2023-02-07T21:37:10.179Z,87.22
2023-02-07T21:40:03.474Z,87.39
2023-02-07T21:42:40.693Z,87.39
2023-02-07T21:45:23.636Z,87.43
2023-02-07T21:47:56.349Z,87.11
2023-02-07T21:50:49.164Z,87.08
2023-02-07T21:53:33.829Z,87.28
2023-02-07T21:56:29.570Z,87.41
2023-02-07T21:59:23.714Z,87.49
2023-02-07T22:02:16.806Z,87.26
2023-02-07T22:05:10.055Z,87.08
2023-02-07T22:08:03.931Z,87.13
2023-02-07T22:10:45.205Z,86.92
2023-02-07T22:13:41.267Z,86.46
2023-02-07T22:16:35.166Z,86.68
2023-02-07T22:19:29.282Z,86.72
2023-02-07T22:22:22.064Z,86.77
2023-02-07T22:25:17.005Z,87.14
2023-02-07T22:28:09.971Z,87.03
2023-02-07T22:31:09.080Z,87.07
2023-02-07T22:34:05.275Z,87.00
2023-02-07T22:36:58.598Z,86.95
2023-02-07T22:39:53.165Z,86.88
2023-02-07T22:42:46.045Z,86.94
2023-02-07T22:45:42.553Z,86.62
2023-02-07T22:48:36.161Z,86.78
2023-02-07T22:51:26.000Z,86.59
2023-02-07T22:54:20.645Z,86.48
2023-02-07T22:57:13.497Z,86.49
2023-02-07T23:00:08.607Z,86.52
2023-02-07T23:03:02.676Z,86.61
2023-02-07T23:05:55.545Z,86.80
2023-02-07T23:08:48.404Z,86.80
2023-02-07T23:11:41.333Z,86.76
2023-02-07T23:14:17.697Z,86.80
2023-02-07T23:16:59.376Z,86.83
2023-02-07T23:19:54.029Z,86.82
2023-02-07T23:22:48.759Z,86.71
2023-02-07T23:25:45.232Z,86.63
2023-02-07T23:28:40.773Z,86.87
2023-02-07T23:31:25.199Z,86.98
2023-02-07T23:34:18.158Z,86.94
2023-02-07T23:37:01.009Z,86.78
2023-02-07T23:39:53.784Z,86.71
2023-02-07T23:42:36.854Z,86.48
2023-02-07T23:45:25.095Z,86.27
2023-02-07T23:48:18.088Z,86.14
2023-02-07T23:51:11.989Z,86.28
2023-02-07T23:54:06.177Z,86.29
2023-02-07T23:56:58.905Z,86.34
2023-02-07T23:59:51.823Z,86.56
